Time;durP1;ratioP1;P1;durP2;ratioP2;P2;SDS_P1;SDS_P2;PMS_P1;PMS_P2;Temp;Humidity;BMP_temperature;BMP_pressure;BME280_temperature;BME280_humidity;BME280_pressure;Samples;Min_cycle;Max_cycle;Signal;HPM_P1;HPM_P2
2021/05/14 00:00:32;;;;;;;38.20;19.77;;;8.40;99.90;;;;;;6226139;23;20150;-89
2021/05/14 00:03:03;;;;;;;38.33;18.85;;;8.50;99.90;;;;;;6226464;23;20008;-89
2021/05/14 00:05:32;;;;;;;33.25;16.35;;;8.40;99.90;;;;;;6226541;23;20104;-90
2021/05/14 00:07:58;;;;;;;47.55;21.25;;;8.40;99.90;;;;;;6201083;23;20347;-90
2021/05/14 00:10:24;;;;;;;42.15;20.23;;;8.40;99.90;;;;;;6226162;23;20004;-91
2021/05/14 00:12:51;;;;;;;40.58;21.45;;;8.40;99.90;;;;;;6225905;23;20000;-90
2021/05/14 00:15:22;;;;;;;32.38;17.35;;;8.40;99.90;;;;;;6219899;23;20080;-89
2021/05/14 00:17:49;;;;;;;43.58;22.65;;;8.30;99.90;;;;;;6226247;23;20012;-90
2021/05/14 00:20:16;;;;;;;41.38;21.60;;;8.40;99.90;;;;;;6253199;23;20076;-90
2021/05/14 00:22:42;;;;;;;40.88;20.33;;;8.40;99.90;;;;;;6201477;23;20012;-90
2021/05/14 00:25:10;;;;;;;39.00;21.65;;;8.40;99.90;;;;;;6225971;23;20143;-90
2021/05/14 00:27:37;;;;;;;44.92;20.77;;;8.40;99.90;;;;;;6226223;23;20362;-90
2021/05/14 00:30:05;;;;;;;44.25;21.10;;;8.40;99.90;;;;;;6226173;23;20058;-90
2021/05/14 00:32:31;;;;;;;40.83;22.38;;;8.40;99.90;;;;;;6225399;23;20092;-90
2021/05/14 00:34:57;;;;;;;42.60;21.95;;;8.40;99.90;;;;;;6227666;23;20039;-89
2021/05/14 00:37:22;;;;;;;41.72;22.38;;;8.40;99.90;;;;;;6225708;23;20019;-89
2021/05/14 00:39:48;;;;;;;41.72;22.45;;;8.40;99.90;;;;;;6226699;23;20566;-90
2021/05/14 00:42:14;;;;;;;32.70;20.10;;;8.50;99.90;;;;;;6254668;23;20004;-90
2021/05/14 00:44:48;;;;;;;42.75;22.08;;;8.50;99.90;;;;;;6227215;23;20027;-90
2021/05/14 00:47:16;;;;;;;42.83;22.42;;;8.40;99.90;;;;;;6228304;23;20046;-89
2021/05/14 00:49:44;;;;;;;38.78;20.58;;;8.50;99.90;;;;;;6228137;23;20039;-90
2021/05/14 00:52:14;;;;;;;42.88;23.30;;;8.50;99.90;;;;;;6227700;23;20000;-90
2021/05/14 00:54:41;;;;;;;39.72;23.23;;;8.40;99.90;;;;;;6227545;23;20008;-89
2021/05/14 00:57:07;;;;;;;41.80;22.02;;;8.40;99.90;;;;;;6227152;23;20079;-90
2021/05/14 00:59:33;;;;;;;39.30;21.55;;;8.40;99.90;;;;;;6227385;23;20015;-91
2021/05/14 01:02:00;;;;;;;36.70;20.77;;;8.40;99.90;;;;;;6227377;23;20022;-91
2021/05/14 01:04:26;;;;;;;39.40;21.63;;;8.40;99.90;;;;;;6226486;23;20014;-90
2021/05/14 01:06:52;;;;;;;38.03;21.15;;;8.40;99.90;;;;;;6226976;23;20004;-90
2021/05/14 01:09:17;;;;;;;35.72;19.67;;;8.40;99.90;;;;;;6228217;23;20060;-89
2021/05/14 01:11:43;;;;;;;42.60;21.42;;;8.40;99.90;;;;;;6227874;23;20044;-91
2021/05/14 01:14:13;;;;;;;33.42;19.73;;;8.50;99.90;;;;;;6227964;23;20000;-89
2021/05/14 01:16:39;;;;;;;31.90;17.45;;;8.50;99.90;;;;;;6227525;23;20028;-89
2021/05/14 01:19:05;;;;;;;38.30;19.77;;;8.40;99.90;;;;;;6253792;23;20054;-89
2021/05/14 01:21:31;;;;;;;39.85;19.25;;;8.40;99.90;;;;;;6225433;23;20039;-90
2021/05/14 01:23:57;;;;;;;26.13;15.88;;;8.40;99.90;;;;;;6224964;23;20046;-89
2021/05/14 01:26:26;;;;;;;32.78;16.85;;;8.30;99.90;;;;;;6227605;23;20004;-88
2021/05/14 01:28:53;;;;;;;26.55;13.45;;;8.30;99.90;;;;;;6228124;23;20007;-89
2021/05/14 01:31:20;;;;;;;19.05;12.35;;;8.30;99.90;;;;;;6223723;23;20439;-90
2021/05/14 01:33:46;;;;;;;24.80;12.13;;;8.30;99.90;;;;;;6218224;23;20439;-89
2021/05/14 01:36:11;;;;;;;24.30;12.70;;;8.20;99.90;;;;;;6244770;23;20091;-90
2021/05/14 01:38:37;;;;;;;26.85;12.45;;;8.20;99.90;;;;;;6219987;23;20001;-90
2021/05/14 01:41:03;;;;;;;25.45;14.57;;;8.20;99.90;;;;;;6220410;23;20102;-92
2021/05/14 01:43:30;;;;;;;20.58;12.55;;;8.20;99.90;;;;;;6220370;23;20000;-90
2021/05/14 01:45:56;;;;;;;28.38;13.40;;;8.10;99.90;;;;;;6220562;23;20012;-90
2021/05/14 01:48:22;;;;;;;29.60;15.07;;;8.20;99.90;;;;;;6220616;23;20084;-91
2021/05/14 01:50:47;;;;;;;24.02;14.88;;;8.20;99.90;;;;;;6220016;23;20082;-90
2021/05/14 01:53:16;;;;;;;19.92;13.52;;;8.10;99.90;;;;;;6220631;23;20008;-90
2021/05/14 01:55:42;;;;;;;27.63;12.32;;;8.00;99.90;;;;;;6219973;23;20008;-92
2021/05/14 01:58:08;;;;;;;25.67;13.93;;;8.10;99.90;;;;;;6220106;23;20014;-92
2021/05/14 02:00:34;;;;;;;26.83;14.32;;;8.00;99.90;;;;;;6219497;23;20024;-91
2021/05/14 02:03:02;;;;;;;31.85;13.38;;;8.10;99.90;;;;;;6221358;23;20000;-90
2021/05/14 02:05:28;;;;;;;24.33;13.82;;;8.10;99.90;;;;;;6230562;23;20004;-91
2021/05/14 02:07:56;;;;;;;23.23;12.93;;;8.00;99.90;;;;;;6229821;23;20458;-90
2021/05/14 02:10:23;;;;;;;24.45;13.75;;;8.00;99.90;;;;;;6203768;23;20005;-91
2021/05/14 02:12:52;;;;;;;28.77;15.73;;;8.00;99.90;;;;;;6230245;23;20004;-91
2021/05/14 02:15:18;;;;;;;26.48;15.73;;;8.10;99.90;;;;;;6228693;23;20004;-91
2021/05/14 02:17:44;;;;;;;30.50;15.30;;;8.00;99.90;;;;;;6231119;23;20043;-90
2021/05/14 02:20:11;;;;;;;27.85;15.07;;;8.00;99.90;;;;;;6231850;23;20000;-90
2021/05/14 02:22:37;;;;;;;39.50;15.98;;;8.00;99.90;;;;;;6206849;23;20027;-90
2021/05/14 02:25:04;;;;;;;27.88;17.08;;;8.00;99.90;;;;;;6232052;23;19996;-91
2021/05/14 02:27:30;;;;;;;40.00;20.33;;;8.00;99.90;;;;;;6235027;23;20008;-90
2021/05/14 02:29:57;;;;;;;33.70;18.02;;;8.00;99.90;;;;;;6243832;23;20485;-91
2021/05/14 02:32:24;;;;;;;35.53;18.73;;;8.00;99.90;;;;;;6243530;23;20315;-91
2021/05/14 02:34:51;;;;;;;38.75;18.55;;;8.00;99.90;;;;;;6241664;23;20012;-89
2021/05/14 02:37:20;;;;;;;32.03;17.50;;;7.90;99.90;;;;;;6265904;23;20008;-91
2021/05/14 02:39:47;;;;;;;35.38;18.83;;;7.90;99.90;;;;;;6231874;23;20000;-91
2021/05/14 02:42:12;;;;;;;35.85;20.52;;;7.90;99.90;;;;;;6204819;23;19993;-91
2021/05/14 02:44:39;;;;;;;29.67;16.52;;;7.90;99.90;;;;;;6257190;23;20004;-90
2021/05/14 02:47:10;;;;;;;32.92;18.65;;;7.90;99.90;;;;;;6229350;23;20063;-90
2021/05/14 02:49:36;;;;;;;35.90;18.88;;;7.90;99.90;;;;;;6229620;23;20077;-89
2021/05/14 02:52:04;;;;;;;37.58;19.50;;;7.90;99.90;;;;;;6228106;23;20031;-91
2021/05/14 02:54:33;;;;;;;36.70;18.92;;;7.90;99.90;;;;;;6229052;23;20012;-90
2021/05/14 02:56:59;;;;;;;33.53;20.25;;;7.90;99.90;;;;;;6252156;23;20145;-90
2021/05/14 02:59:29;;;;;;;34.85;17.27;;;7.90;99.90;;;;;;6229581;23;20000;-92
2021/05/14 03:01:55;;;;;;;33.65;18.52;;;7.90;99.90;;;;;;6229761;23;20008;-90
2021/05/14 03:04:25;;;;;;;33.25;20.20;;;7.90;99.90;;;;;;6205664;23;20028;-92
2021/05/14 03:06:51;;;;;;;35.40;18.95;;;7.90;99.90;;;;;;6229960;23;20004;-90
2021/05/14 03:09:17;;;;;;;31.42;16.48;;;7.90;99.90;;;;;;6229384;23;20015;-90
2021/05/14 03:11:43;;;;;;;24.73;14.50;;;7.90;99.90;;;;;;6229818;23;19996;-90
2021/05/14 03:14:09;;;;;;;28.88;16.35;;;7.80;99.90;;;;;;6227032;23;20004;-89
2021/05/14 03:16:35;;;;;;;31.00;16.63;;;7.80;99.90;;;;;;6228373;23;20023;-89
2021/05/14 03:19:03;;;;;;;26.75;15.23;;;7.80;99.90;;;;;;6255170;23;20171;-90
2021/05/14 03:21:30;;;;;;;25.75;14.57;;;7.80;99.90;;;;;;6230379;23;20069;-90
2021/05/14 03:23:58;;;;;;;24.77;13.77;;;7.80;99.90;;;;;;6231093;23;20004;-90
2021/05/14 03:26:30;;;;;;;28.48;16.13;;;7.80;99.90;;;;;;6257002;23;20012;-90
2021/05/14 03:28:57;;;;;;;26.25;14.70;;;7.70;99.90;;;;;;6230365;23;20000;-90
2021/05/14 03:31:24;;;;;;;27.23;15.20;;;7.70;99.90;;;;;;6202395;23;20008;-90
2021/05/14 03:33:49;;;;;;;23.95;13.50;;;7.70;99.90;;;;;;6228754;23;20077;-90
2021/05/14 03:36:20;;;;;;;24.10;14.32;;;7.70;99.90;;;;;;6229323;23;20008;-89
2021/05/14 03:38:52;;;;;;;23.33;12.60;;;7.80;99.90;;;;;;6228962;23;20004;-90
2021/05/14 03:41:31;;;;;;;24.27;13.15;;;7.80;99.90;;;;;;6206109;23;20054;-89
2021/05/14 03:43:58;;;;;;;30.80;13.68;;;7.80;99.90;;;;;;6233239;23;20058;-89
2021/05/14 03:46:31;;;;;;;23.85;13.20;;;7.70;99.90;;;;;;6228124;23;20012;-89
2021/05/14 03:48:59;;;;;;;22.73;13.63;;;7.70;99.90;;;;;;6229739;23;20008;-89
2021/05/14 03:51:30;;;;;;;22.83;13.05;;;7.70;99.90;;;;;;6227828;23;20012;-90
2021/05/14 03:53:58;;;;;;;21.40;11.93;;;7.70;99.90;;;;;;6203792;23;20011;-88
2021/05/14 03:56:24;;;;;;;23.70;12.82;;;7.70;99.90;;;;;;6253328;23;20012;-92
2021/05/14 03:58:50;;;;;;;22.85;12.70;;;7.70;99.90;;;;;;6229003;23;20039;-89
2021/05/14 04:01:17;;;;;;;27.15;13.93;;;7.60;99.90;;;;;;6229582;23;20020;-89
2021/05/14 04:03:44;;;;;;;22.77;13.52;;;7.60;99.90;;;;;;6229346;23;20016;-89
2021/05/14 04:06:09;;;;;;;22.50;14.38;;;7.60;99.90;;;;;;6229617;23;20000;-90
2021/05/14 04:08:36;;;;;;;23.88;13.55;;;7.60;99.90;;;;;;6229231;23;20062;-88
2021/05/14 04:16:33;;;;;;;27.80;13.73;;;7.60;99.90;;;;;;6255523;23;20027;-89
2021/05/14 04:19:02;;;;;;;19.63;12.05;;;7.60;99.90;;;;;;6253282;23;20023;-89
2021/05/14 04:21:30;;;;;;;20.60;12.02;;;7.60;99.90;;;;;;6223267;23;20035;-90
2021/05/14 04:23:57;;;;;;;25.25;14.23;;;7.60;99.90;;;;;;6247813;23;20527;-90
2021/05/14 04:26:23;;;;;;;29.25;14.73;;;7.60;99.90;;;;;;6248015;23;20000;-90
2021/05/14 04:28:49;;;;;;;22.80;12.80;;;7.50;99.90;;;;;;6222225;23;20030;-91
2021/05/14 04:31:14;;;;;;;25.90;14.35;;;7.50;99.90;;;;;;6248443;23;20000;-89
2021/05/14 04:33:43;;;;;;;21.15;12.15;;;7.50;99.90;;;;;;6221653;23;20004;-90
2021/05/14 04:36:15;;;;;;;27.05;13.57;;;7.50;99.90;;;;;;6220782;23;20012;-90
2021/05/14 04:38:40;;;;;;;21.08;11.85;;;7.50;99.90;;;;;;6248784;23;20008;-91
2021/05/14 04:41:06;;;;;;;25.40;13.25;;;7.50;99.90;;;;;;6221758;23;20054;-90
2021/05/14 04:43:32;;;;;;;23.85;12.98;;;7.50;99.90;;;;;;6221327;23;20376;-90
2021/05/14 04:45:59;;;;;;;23.42;13.10;;;7.60;99.90;;;;;;6246465;23;20008;-90
2021/05/14 04:48:25;;;;;;;22.83;13.77;;;7.60;99.90;;;;;;6221779;23;20059;-90
2021/05/14 04:50:52;;;;;;;17.95;10.60;;;7.60;99.90;;;;;;6246984;23;20008;-91
2021/05/14 04:53:27;;;;;;;18.10;10.90;;;7.70;99.90;;;;;;6220672;23;20008;-90
2021/05/14 04:55:56;;;;;;;23.23;12.48;;;7.70;99.90;;;;;;6246121;23;20005;-90
2021/05/14 04:58:22;;;;;;;24.13;12.63;;;7.70;99.90;;;;;;6196859;23;20008;-90
2021/05/14 05:00:48;;;;;;;18.92;11.43;;;7.80;99.90;;;;;;6189367;23;20052;-90
2021/05/14 05:03:14;;;;;;;21.40;9.98;;;7.80;99.90;;;;;;6217704;23;20101;-90
2021/05/14 05:05:40;;;;;;;17.00;9.63;;;7.90;99.90;;;;;;6217569;23;20004;-90
2021/05/14 05:08:05;;;;;;;15.40;8.73;;;7.90;99.90;;;;;;6218658;23;20502;-90
2021/05/14 05:10:32;;;;;;;17.35;9.32;;;7.90;99.90;;;;;;6219549;23;20380;-90
2021/05/14 05:12:58;;;;;;;17.33;9.32;;;7.90;99.90;;;;;;6220192;23;20003;-91
2021/05/14 05:15:24;;;;;;;20.55;9.23;;;7.90;99.90;;;;;;6218625;23;20013;-90
2021/05/14 05:17:51;;;;;;;16.55;8.60;;;7.90;99.90;;;;;;6219160;23;20033;-90
2021/05/14 05:20:18;;;;;;;13.68;7.70;;;7.90;99.90;;;;;;6221026;23;20011;-91
2021/05/14 05:22:44;;;;;;;10.93;6.70;;;7.90;99.90;;;;;;6244867;23;20084;-91
2021/05/14 05:25:10;;;;;;;13.48;6.82;;;7.90;99.90;;;;;;6195408;23;20013;-88
2021/05/14 05:27:36;;;;;;;14.50;7.22;;;7.90;99.90;;;;;;6244637;23;20060;-90
2021/05/14 05:30:04;;;;;;;12.93;6.40;;;7.90;99.90;;;;;;6219927;23;20387;-90
2021/05/14 05:32:31;;;;;;;8.35;5.30;;;7.90;99.90;;;;;;6222048;23;20005;-90
2021/05/14 05:34:57;;;;;;;10.82;5.88;;;7.90;99.90;;;;;;6220979;23;20001;-89
2021/05/14 05:37:24;;;;;;;9.63;5.38;;;8.00;99.90;;;;;;6245301;23;20017;-90
2021/05/14 05:39:50;;;;;;;8.50;5.20;;;8.00;99.90;;;;;;6194765;23;20004;-89
2021/05/14 05:42:16;;;;;;;8.48;4.80;;;8.00;99.90;;;;;;6220171;23;20016;-90
2021/05/14 05:44:41;;;;;;;8.82;4.38;;;8.00;99.90;;;;;;6195669;23;20328;-90
2021/05/14 05:47:08;;;;;;;7.13;4.45;;;7.90;99.90;;;;;;6246603;23;20004;-89
2021/05/14 05:49:36;;;;;;;9.57;5.00;;;8.00;99.90;;;;;;6222187;23;20073;-90
2021/05/14 05:52:03;;;;;;;5.88;4.07;;;8.00;99.90;;;;;;6220233;23;20004;-89
2021/05/14 05:54:29;;;;;;;6.47;4.30;;;8.00;99.90;;;;;;6221535;23;20021;-90
2021/05/14 05:56:57;;;;;;;5.80;4.00;;;8.00;99.90;;;;;;6245556;23;20020;-90
2021/05/14 05:59:25;;;;;;;9.25;4.32;;;8.00;99.90;;;;;;6246743;23;20004;-89
2021/05/14 06:01:51;;;;;;;6.85;4.60;;;8.00;99.90;;;;;;6244510;23;20036;-91
2021/05/14 06:04:18;;;;;;;6.82;4.80;;;8.00;99.90;;;;;;6244574;23;20005;-91
2021/05/14 06:06:44;;;;;;;7.22;4.85;;;8.00;99.90;;;;;;6244896;23;20009;-91
2021/05/14 06:09:10;;;;;;;7.45;4.80;;;8.00;99.90;;;;;;6245153;23;20004;-94
2021/05/14 06:11:36;;;;;;;6.25;3.35;;;8.00;99.90;;;;;;6246975;23;20066;-91
2021/05/14 06:14:04;;;;;;;8.18;5.00;;;8.10;99.90;;;;;;6221589;23;20397;-92
2021/05/14 06:16:30;;;;;;;8.68;4.60;;;8.10;99.90;;;;;;6221826;23;20029;-91
2021/05/14 06:19:02;;;;;;;8.82;5.38;;;8.10;99.90;;;;;;6246653;23;20015;-90
2021/05/14 06:21:29;;;;;;;10.60;4.82;;;8.10;99.90;;;;;;6247594;23;20013;-90
2021/05/14 06:23:55;;;;;;;7.88;4.28;;;8.10;99.90;;;;;;6247792;23;20000;-92
2021/05/14 06:26:21;;;;;;;7.43;4.82;;;8.10;99.90;;;;;;6246750;23;20031;-91
2021/05/14 06:28:47;;;;;;;7.13;4.85;;;8.10;99.90;;;;;;6246566;23;20005;-90
2021/05/14 06:31:12;;;;;;;7.57;5.13;;;8.10;99.90;;;;;;6246488;23;20008;-91
2021/05/14 06:33:39;;;;;;;9.05;5.53;;;8.20;99.90;;;;;;6225073;23;20028;-91
2021/05/14 06:36:07;;;;;;;7.57;5.18;;;8.20;99.90;;;;;;6248112;23;20447;-90
2021/05/14 06:38:33;;;;;;;9.90;5.65;;;8.30;99.90;;;;;;6248574;23;20355;-91
2021/05/14 06:41:00;;;;;;;10.52;5.57;;;8.30;99.90;;;;;;6248860;23;20000;-91
2021/05/14 06:43:28;;;;;;;10.45;5.88;;;8.30;99.90;;;;;;6248844;23;20383;-89
2021/05/14 06:45:54;;;;;;;8.48;5.53;;;8.30;99.90;;;;;;6223450;23;20083;-91
2021/05/14 06:48:21;;;;;;;9.52;5.40;;;8.30;99.90;;;;;;6248902;23;20506;-91
2021/05/14 06:50:47;;;;;;;10.45;5.15;;;8.30;99.90;;;;;;6223164;23;20031;-90
2021/05/14 06:53:13;;;;;;;11.23;5.82;;;8.30;99.90;;;;;;6249730;23;20602;-92
2021/05/14 06:55:39;;;;;;;9.45;5.97;;;8.30;99.90;;;;;;6252006;23;20079;-91
2021/05/14 06:58:05;;;;;;;9.30;5.90;;;8.40;99.90;;;;;;6251391;23;20034;-91
2021/05/14 07:00:33;;;;;;;8.70;5.60;;;8.40;99.90;;;;;;6251118;22;20012;-91
2021/05/14 07:03:00;;;;;;;10.60;5.95;;;8.40;99.90;;;;;;6251508;23;20012;-92
2021/05/14 07:05:30;;;;;;;9.90;5.95;;;8.50;99.90;;;;;;6233981;23;20050;-92
2021/05/14 07:07:55;;;;;;;10.38;6.22;;;8.60;99.90;;;;;;6211175;23;20073;-90
2021/05/14 07:10:23;;;;;;;8.38;4.85;;;8.60;99.90;;;;;;6258193;23;20012;-91
2021/05/14 07:12:50;;;;;;;7.93;4.78;;;8.70;99.90;;;;;;6234623;23;20008;-91
2021/05/14 07:15:16;;;;;;;9.23;4.88;;;8.80;99.90;;;;;;6232712;23;20005;-91
2021/05/14 07:17:42;;;;;;;10.82;5.35;;;8.90;99.90;;;;;;6231705;23;20020;-89
2021/05/14 07:20:09;;;;;;;5.90;4.15;;;9.00;99.90;;;;;;6257124;23;20444;-91
2021/05/14 07:22:36;;;;;;;8.68;4.43;;;9.10;99.90;;;;;;6231757;23;20004;-93
2021/05/14 07:25:04;;;;;;;6.68;4.50;;;9.20;99.90;;;;;;6255586;23;20310;-90
2021/05/14 07:27:32;;;;;;;6.53;4.00;;;9.30;99.90;;;;;;6230851;23;20008;-91
2021/05/14 07:29:58;;;;;;;6.60;4.38;;;9.40;99.90;;;;;;6206735;23;20004;-91
2021/05/14 07:32:24;;;;;;;7.10;3.47;;;9.50;99.90;;;;;;6203913;23;20011;-92
2021/05/14 07:34:53;;;;;;;9.02;3.35;;;9.60;99.90;;;;;;6227181;23;20004;-92
2021/05/14 07:42:12;;;;;;;3.55;2.60;;;9.90;99.90;;;;;;6183343;23;20009;-91
2021/05/14 07:49:43;;;;;;;5.22;3.65;;;10.10;99.90;;;;;;6186905;23;20024;-93
2021/05/14 07:52:11;;;;;;;5.00;3.25;;;10.10;99.90;;;;;;6223847;23;20036;-94
2021/05/14 07:54:42;;;;;;;3.53;2.67;;;10.10;99.90;;;;;;6221626;23;20012;-95
2021/05/14 07:57:08;;;;;;;4.20;3.05;;;10.20;99.90;;;;;;6195690;23;20075;-93
2021/05/14 07:59:34;;;;;;;3.83;3.17;;;10.20;99.90;;;;;;6247768;23;20012;-94
2021/05/14 08:02:15;;;;;;;5.65;3.35;;;10.20;99.90;;;;;;6257720;23;20128;-95
2021/05/14 08:04:50;;;;;;;4.63;3.10;;;10.20;99.90;;;;;;6229626;23;19996;-95
2021/05/14 08:07:19;;;;;;;5.03;3.33;;;10.20;99.90;;;;;;6238255;23;20012;-94
2021/05/14 08:09:57;;;;;;;3.65;3.08;;;10.30;99.90;;;;;;6264342;23;20000;-94
2021/05/14 08:12:34;;;;;;;5.32;3.22;;;10.30;99.90;;;;;;6235437;23;20028;-94
2021/05/14 08:15:04;;;;;;;5.82;2.83;;;10.30;99.90;;;;;;6264151;23;20066;-94
2021/05/14 08:17:35;;;;;;;3.85;3.03;;;10.30;99.90;;;;;;6216610;23;20463;-94
2021/05/14 08:20:03;;;;;;;5.97;3.40;;;10.30;99.90;;;;;;6218367;23;20012;-94
2021/05/14 08:22:29;;;;;;;4.30;2.90;;;10.40;99.90;;;;;;6238291;23;20004;-95
2021/05/14 08:24:59;;;;;;;6.43;2.70;;;10.40;99.90;;;;;;6262556;23;20001;-94
2021/05/14 08:27:28;;;;;;;5.40;2.35;;;10.40;99.90;;;;;;6235412;23;20007;-94
2021/05/14 08:30:00;;;;;;;3.78;2.35;;;10.50;99.90;;;;;;6237235;23;20015;-94
2021/05/14 08:32:32;;;;;;;3.28;2.17;;;10.60;99.90;;;;;;6237675;23;20004;-93
2021/05/14 08:35:04;;;;;;;4.68;2.22;;;10.60;99.90;;;;;;6264507;23;20028;-94
2021/05/14 08:40:49;;;;;;;5.60;2.20;;;10.70;99.90;;;;;;6270463;23;20065;-95
2021/05/14 08:43:22;;;;;;;2.35;1.90;;;10.80;99.90;;;;;;6267334;23;20040;-95
2021/05/14 08:46:16;;;;;;;1.95;1.77;;;10.80;99.90;;;;;;6268948;23;20004;-94
2021/05/14 08:48:54;;;;;;;2.08;1.70;;;10.90;99.90;;;;;;6268503;23;20004;-93
2021/05/14 08:51:30;;;;;;;2.42;1.60;;;10.90;99.90;;;;;;6270275;23;20000;-95
2021/05/14 08:54:29;;;;;;;2.70;1.95;;;10.90;99.90;;;;;;6243457;23;20071;-95
2021/05/14 08:57:08;;;;;;;3.15;1.95;;;10.90;99.90;;;;;;6242875;23;20012;-95
2021/05/14 08:59:41;;;;;;;2.63;2.22;;;11.00;99.90;;;;;;6242627;23;20008;-93
2021/05/14 09:02:27;;;;;;;3.90;2.03;;;10.90;99.90;;;;;;6243828;23;20024;-94
2021/05/14 09:05:29;;;;;;;3.03;1.98;;;10.90;99.90;;;;;;6188805;23;20009;-95
2021/05/14 09:08:07;;;;;;;2.83;2.10;;;10.90;99.90;;;;;;6196862;23;20009;-94
2021/05/14 09:10:35;;;;;;;3.10;1.83;;;11.00;99.90;;;;;;6182238;23;20009;-95
2021/05/14 09:13:48;;;;;;;;;;;;;;;;;;;;;
2021/05/14 09:16:39;;;;;;;4.55;2.80;;;11.00;99.90;;;;;;6206560;23;20009;-95
2021/05/14 09:19:28;;;;;;;3.33;2.50;;;11.00;99.90;;;;;;6177193;23;20017;-95
2021/05/14 09:22:19;;;;;;;3.20;2.38;;;11.00;99.90;;;;;;6204386;23;19996;-95
2021/05/14 09:25:13;;;;;;;3.15;2.40;;;11.00;99.90;;;;;;6156968;23;20009;-95
2021/05/14 09:28:14;;;;;;;6.15;3.40;;;11.00;99.80;;;;;;6201413;23;20001;-95
2021/05/14 09:31:20;;;;;;;3.92;2.72;;;11.00;99.70;;;;;;6241507;23;20000;-95
2021/05/14 09:34:06;;;;;;;3.55;3.00;;;11.00;99.60;;;;;;6241734;23;20000;-95
2021/05/14 09:36:41;;;;;;;4.38;2.90;;;10.90;99.60;;;;;;6242356;23;20045;-95
2021/05/14 09:39:23;;;;;;;3.50;2.90;;;10.90;99.70;;;;;;6174506;23;20069;-94
2021/05/14 09:41:51;;;;;;;5.82;3.03;;;10.90;99.70;;;;;;6148742;23;20027;-95
2021/05/14 09:44:30;;;;;;;6.00;3.30;;;11.00;99.80;;;;;;6149146;23;20097;-94
2021/05/14 09:47:00;;;;;;;4.97;3.20;;;10.90;99.70;;;;;;6145802;23;20002;-94
2021/05/14 09:49:32;;;;;;;5.13;3.72;;;10.90;99.70;;;;;;6148597;23;20005;-95
2021/05/14 09:55:29;;;;;;;5.15;2.88;;;10.90;99.60;;;;;;6172195;23;20059;-94
2021/05/14 09:58:56;;;;;;;5.13;2.90;;;10.80;99.60;;;;;;6153310;23;20018;-94
2021/05/14 10:01:44;;;;;;;6.22;2.92;;;10.80;99.50;;;;;;6179085;23;20074;-94
2021/05/14 10:04:39;;;;;;;6.25;3.35;;;10.90;99.60;;;;;;6204495;23;20001;-95
2021/05/14 10:07:36;;;;;;;3.58;2.72;;;10.90;99.60;;;;;;6171525;23;20005;-96
2021/05/14 10:10:31;;;;;;;3.67;2.40;;;10.90;99.40;;;;;;6190414;23;19997;-95
2021/05/14 10:13:04;;;;;;;3.38;2.58;;;10.90;99.00;;;;;;6183124;23;20009;-94
2021/05/14 10:15:39;;;;;;;3.45;2.72;;;10.90;98.90;;;;;;6185643;23;20009;-95
2021/05/14 10:18:16;;;;;;;3.10;2.17;;;11.00;98.80;;;;;;6185138;23;20051;-95
2021/05/14 10:21:10;;;;;;;3.42;2.40;;;11.00;98.40;;;;;;6205593;23;20024;-96
2021/05/14 10:23:43;;;;;;;5.25;2.33;;;10.90;98.30;;;;;;6176516;23;20021;-95
2021/05/14 10:26:20;;;;;;;3.92;2.40;;;10.90;98.30;;;;;;6176311;23;20055;-94
2021/05/14 10:28:51;;;;;;;3.67;2.88;;;10.90;98.30;;;;;;6195260;23;20004;-94
2021/05/14 10:31:22;;;;;;;2.92;2.00;;;10.90;98.40;;;;;;6216415;23;20015;-95
2021/05/14 10:34:19;;;;;;;3.03;2.28;;;10.90;98.40;;;;;;6271761;23;20096;-95
2021/05/14 10:36:47;;;;;;;4.82;2.40;;;10.90;98.30;;;;;;6245049;23;20031;-95
2021/05/14 10:39:32;;;;;;;4.18;1.98;;;11.00;98.40;;;;;;6246523;23;20430;-94
2021/05/14 10:42:19;;;;;;;3.60;2.20;;;11.00;98.30;;;;;;6273155;23;19992;-94
2021/05/14 10:44:54;;;;;;;3.92;2.10;;;11.10;98.10;;;;;;6247581;23;20024;-95
2021/05/14 10:47:28;;;;;;;2.63;2.08;;;11.10;97.90;;;;;;6273203;23;20058;-95
2021/05/14 10:50:38;;;;;;;4.30;2.58;;;11.20;97.90;;;;;;6273210;23;19996;-94
2021/05/14 10:53:36;;;;;;;5.80;2.38;;;11.20;97.30;;;;;;6273176;23;20015;-94
2021/05/14 10:56:24;;;;;;;4.68;2.33;;;11.20;96.90;;;;;;6247135;23;20008;-95
2021/05/14 10:59:02;;;;;;;2.95;1.80;;;11.20;96.80;;;;;;6248145;23;19992;-95
2021/05/14 11:01:43;;;;;;;5.68;2.78;;;11.20;96.70;;;;;;6274360;22;20035;-95
2021/05/14 11:10:27;;;;;;;5.68;2.30;;;11.30;96.50;;;;;;6258285;22;20047;-94
2021/05/14 11:12:59;;;;;;;3.85;2.05;;;11.40;96.30;;;;;;6272937;23;20031;-94
2021/05/14 11:15:34;;;;;;;3.45;1.90;;;11.50;96.10;;;;;;6271074;23;20004;-95
2021/05/14 11:18:30;;;;;;;3.75;2.40;;;11.50;95.50;;;;;;6245262;23;20055;-94
2021/05/14 11:20:57;;;;;;;5.25;2.45;;;11.40;95.30;;;;;;6272940;23;19984;-95
2021/05/14 11:23:43;;;;;;;5.43;2.53;;;11.50;95.30;;;;;;6246161;23;20011;-95
2021/05/14 11:26:18;;;;;;;6.00;2.20;;;11.50;95.30;;;;;;6263733;23;20343;-93
2021/05/14 11:28:52;;;;;;;3.47;2.40;;;11.60;95.30;;;;;;6238684;23;20007;-93
2021/05/14 11:31:22;;;;;;;4.95;2.15;;;11.70;95.30;;;;;;6240392;23;20008;-92
2021/05/14 11:34:08;;;;;;;3.42;1.92;;;11.80;95.20;;;;;;6240868;23;19996;-93
2021/05/14 11:36:38;;;;;;;4.15;2.13;;;11.90;95.10;;;;;;6240184;22;20020;-94
2021/05/14 11:39:08;;;;;;;10.15;2.10;;;11.90;95.10;;;;;;6221246;23;20007;-93
2021/05/14 11:41:35;;;;;;;5.28;2.50;;;12.00;95.00;;;;;;6271866;22;20004;-94
2021/05/14 11:44:05;;;;;;;2.85;2.03;;;12.10;95.00;;;;;;6270954;23;20008;-91
2021/05/14 11:46:33;;;;;;;3.30;2.17;;;12.20;94.70;;;;;;6219520;23;20018;-91
2021/05/14 11:49:11;;;;;;;3.42;2.10;;;12.30;94.40;;;;;;6271312;23;20082;-93
2021/05/14 11:51:39;;;;;;;3.90;2.25;;;12.40;94.10;;;;;;6241699;23;20004;-93
2021/05/14 11:54:32;;;;;;;4.50;2.33;;;12.50;93.90;;;;;;6236553;23;20001;-95
2021/05/14 11:57:01;;;;;;;2.90;2.55;;;12.50;93.40;;;;;;6235407;23;20017;-94
2021/05/14 11:59:27;;;;;;;4.15;2.30;;;12.50;93.00;;;;;;6231344;23;20005;-94
2021/05/14 12:01:59;;;;;;;2.88;1.83;;;12.60;92.80;;;;;;6230422;23;20030;-94
2021/05/14 12:04:29;;;;;;;;;;;12.60;92.60;;;;;;6180883;23;20001;-93
2021/05/14 12:06:55;;;;;;;6.72;2.40;;;12.60;92.60;;;;;;6204539;23;19956;-95
2021/05/14 12:09:21;;;;;;;2.90;2.20;;;12.80;92.50;;;;;;6178336;23;20024;-94
2021/05/14 12:11:48;;;;;;;2.50;2.00;;;12.80;92.10;;;;;;6228060;23;20420;-94
2021/05/14 12:14:24;;;;;;;2.50;2.15;;;12.90;91.90;;;;;;6177220;23;20004;-95
2021/05/14 12:16:53;;;;;;;4.35;2.30;;;12.90;91.30;;;;;;6227315;23;20012;-95
2021/05/14 12:19:19;;;;;;;3.72;2.30;;;13.00;91.30;;;;;;6230183;23;20078;-94
2021/05/14 12:21:46;;;;;;;2.72;2.15;;;13.10;91.20;;;;;;6228282;23;20001;-95
2021/05/14 12:24:40;;;;;;;2.50;2.00;;;13.30;90.80;;;;;;6198915;23;20012;-95
2021/05/14 12:27:06;;;;;;;2.30;2.05;;;13.40;90.10;;;;;;6198530;23;20096;-92
2021/05/14 12:29:32;;;;;;;4.60;2.17;;;13.40;89.50;;;;;;6198609;23;20004;-94
2021/05/14 12:32:00;;;;;;;4.55;2.10;;;13.40;89.10;;;;;;6200689;23;20004;-94
2021/05/14 12:34:28;;;;;;;2.58;2.00;;;13.30;88.80;;;;;;6199852;23;20004;-94
2021/05/14 12:37:01;;;;;;;4.00;2.40;;;13.20;88.80;;;;;;6228657;23;20074;-94
2021/05/14 12:39:29;;;;;;;3.45;2.13;;;13.10;88.60;;;;;;6205238;23;20004;-94
2021/05/14 12:42:07;;;;;;;4.18;2.47;;;13.10;88.70;;;;;;6180032;23;20031;-94
2021/05/14 12:44:37;;;;;;;3.40;1.92;;;12.90;88.80;;;;;;6204846;23;20005;-93
2021/05/14 12:47:18;;;;;;;3.40;2.38;;;12.80;88.90;;;;;;6180947;23;20408;-94
2021/05/14 12:50:03;;;;;;;;;;;12.80;90.00;;;;;;6204683;23;20009;-93
2021/05/14 12:52:50;;;;;;;3.03;2.28;;;12.80;89.80;;;;;;6203334;23;19904;-92
2021/05/14 12:55:21;;;;;;;5.07;2.45;;;12.70;90.00;;;;;;6204737;23;20060;-93
2021/05/14 12:58:03;;;;;;;;;;;12.70;90.00;;;;;;6178247;23;20024;-93
2021/05/14 13:00:37;;;;;;;4.30;1.88;;;12.70;90.10;;;;;;6231131;23;19900;-95
2021/05/14 13:03:10;;;;;;;5.65;2.20;;;12.60;90.30;;;;;;6204948;23;20016;-96
2021/05/14 13:05:57;;;;;;;4.63;2.55;;;12.70;90.30;;;;;;6207055;23;20001;-94
2021/05/14 13:08:25;;;;;;;4.22;2.60;;;12.70;90.30;;;;;;6209402;23;20004;-94
2021/05/14 13:11:03;;;;;;;3.10;2.33;;;12.70;90.50;;;;;;6208657;23;20209;-95
2021/05/14 13:13:35;;;;;;;5.07;2.38;;;12.70;90.60;;;;;;6233176;23;20001;-94
2021/05/14 13:16:08;;;;;;;4.53;2.40;;;12.70;90.60;;;;;;6224590;23;20308;-94
2021/05/14 13:19:00;;;;;;;3.05;2.30;;;12.80;90.50;;;;;;6230202;23;20005;-95
2021/05/14 13:21:29;;;;;;;3.20;2.83;;;12.80;90.60;;;;;;6232028;23;20011;-95
2021/05/14 13:23:57;;;;;;;5.00;2.67;;;12.70;90.50;;;;;;6207111;23;20005;-95
2021/05/14 13:26:26;;;;;;;6.40;2.85;;;12.70;90.50;;;;;;6232894;23;20281;-95
2021/05/14 13:28:55;;;;;;;3.22;2.17;;;12.70;90.60;;;;;;6206239;23;20096;-94
2021/05/14 13:31:23;;;;;;;4.07;2.60;;;12.70;90.70;;;;;;6181031;23;20008;-95
2021/05/14 13:33:51;;;;;;;6.90;3.15;;;12.70;90.60;;;;;;6233923;23;20408;-94